Wind From: 13-12-2017 10:08 Until: 14-12-2017 06:00 warning for: Wind Level: Yellow info button

Although rather usual in this region, locally or potentially dangerous phenomena are expected. (such as local winds, summer thunderstorms, rising streams or high waves) Be aware and pay attention to the latest weather updates, especially if you carry out activities exposed to weather or close to a stream or shoreline. 


Meteo18 Weather Cam more information Meteo18 Weather Cam


Thunder radar more information blitzortung!


Rain radar more information rain snow radar


Visit our other weather sites:

Template documentation
and downloads

And another site



Weather Underground History page Text

Daily Summary for November 23, 2017 Units:  Metric    English   Both
« Previous Day
Next Day »
Daily Weekly Monthly Yearly Custom
  High: Low: Average:
Temperature: 16.7 °C 7.5 °C 11.5 °C
Dew Point: 9.4 °C 5.0 °C 7.2 °C
Humidity: 86 % 60 % 75 %
Wind Speed: 27.4 km/h 0.0 km/h 7.3 km/h
Wind Gust: 38.6 km/h - -
Wind:- - SW
Pressure: 1014.4 hPa 1006.7 hPa -
Precipitation: 0.0 mm    
Historical Graphs
 
 
Tabular Data for November 23, 2017
Time Temperature Dew Point Pressure Wind Wind Speed Wind Gust Humidity Rainfall Rate (Hourly)
00:02 7.7 °C 5.2 °C 1007.7 hPa SSE 1.6 km/h 3.2 km/h 84 % 0.0 mm
00:12 7.6 °C 5.1 °C 1007.7 hPa Calm   3.2 km/h 84 % 0.0 mm
00:17 7.5 °C 5.0 °C 1007.7 hPa Calm   3.2 km/h 84 % 0.0 mm
00:32 7.6 °C 5.2 °C 1007.3 hPa SSW 3.2 km/h 4.8 km/h 85 % 0.0 mm
00:42 7.5 °C 5.1 °C 1007.3 hPa SSW 3.2 km/h 4.8 km/h 85 % 0.0 mm
01:07 7.5 °C 5.3 °C 1007.0 hPa SW 4.8 km/h 6.4 km/h 86 % 0.0 mm
01:12 7.6 °C 5.4 °C 1007.0 hPa SSW 6.4 km/h 6.4 km/h 86 % 0.0 mm
01:22 7.7 °C 5.3 °C 1007.0 hPa South 3.2 km/h 6.4 km/h 85 % 0.0 mm
01:32 7.8 °C 5.4 °C 1007.0 hPa SW 4.8 km/h 6.4 km/h 85 % 0.0 mm
01:37 7.8 °C 5.4 °C 1007.0 hPa SW 4.8 km/h 4.8 km/h 85 % 0.0 mm
01:42 7.9 °C 5.5 °C 1007.0 hPa SSW 1.6 km/h 6.4 km/h 85 % 0.0 mm
01:47 7.9 °C 5.4 °C 1006.7 hPa South 1.6 km/h 6.4 km/h 84 % 0.0 mm
01:57 8.1 °C 5.6 °C 1006.7 hPa South 1.6 km/h 6.4 km/h 84 % 0.0 mm
02:02 8.1 °C 5.6 °C 1006.7 hPa SW 1.6 km/h 6.4 km/h 84 % 0.0 mm
02:12 8.1 °C 5.4 °C 1006.7 hPa Calm   3.2 km/h 83 % 0.0 mm
02:17 8.0 °C 5.3 °C 1006.7 hPa Calm   3.2 km/h 83 % 0.0 mm
02:22 8.0 °C 5.3 °C 1006.7 hPa West 1.6 km/h 3.2 km/h 83 % 0.0 mm
02:32 8.3 °C 5.4 °C 1006.7 hPa Calm   3.2 km/h 82 % 0.0 mm
02:42 8.4 °C 5.3 °C 1006.7 hPa WSW 1.6 km/h 8.0 km/h 81 % 0.0 mm
02:47 8.4 °C 5.3 °C 1007.0 hPa WSW 1.6 km/h 8.0 km/h 81 % 0.0 mm
02:57 8.6 °C 5.3 °C 1007.0 hPa West 1.6 km/h 6.4 km/h 80 % 0.0 mm
03:02 8.7 °C 5.4 °C 1007.0 hPa SW 1.6 km/h 3.2 km/h 80 % 0.0 mm
03:07 8.7 °C 5.4 °C 1007.0 hPa West 3.2 km/h 3.2 km/h 80 % 0.0 mm
03:12 8.8 °C 5.4 °C 1007.0 hPa Calm   4.8 km/h 79 % 0.0 mm
03:22 9.0 °C 5.4 °C 1007.0 hPa West 1.6 km/h 4.8 km/h 78 % 0.0 mm
03:27 9.2 °C 5.4 °C 1006.7 hPa WNW 1.6 km/h 3.2 km/h 77 % 0.0 mm
03:32 9.1 °C 5.3 °C 1006.7 hPa NW 1.6 km/h 3.2 km/h 77 % 0.0 mm
03:37 9.1 °C 5.3 °C 1006.7 hPa Calm   3.2 km/h 77 % 0.0 mm
03:47 9.1 °C 5.3 °C 1006.7 hPa West 1.6 km/h 3.2 km/h 77 % 0.0 mm
03:52 9.1 °C 5.3 °C 1006.7 hPa Calm   3.2 km/h 77 % 0.0 mm
03:57 9.3 °C 5.5 °C 1006.7 hPa Calm   3.2 km/h 77 % 0.0 mm
04:22 9.3 °C 5.5 °C 1007.0 hPa SW 3.2 km/h 4.8 km/h 77 % 0.0 mm
04:32 9.3 °C 5.3 °C 1006.7 hPa SSW 6.4 km/h 8.0 km/h 76 % 0.0 mm
04:37 9.4 °C 5.4 °C 1006.7 hPa SW 4.8 km/h 8.0 km/h 76 % 0.0 mm
04:42 9.4 °C 5.6 °C 1006.7 hPa SSW 9.7 km/h 9.7 km/h 77 % 0.0 mm
04:47 9.4 °C 5.4 °C 1006.7 hPa SSW 1.6 km/h 9.7 km/h 76 % 0.0 mm
04:52 8.8 °C 5.2 °C 1006.7 hPa SSW 1.6 km/h 9.7 km/h 78 % 0.0 mm
04:57 8.6 °C 5.3 °C 1007.0 hPa SSW 4.8 km/h 11.3 km/h 80 % 0.0 mm
05:02 8.7 °C 5.4 °C 1007.0 hPa South 6.4 km/h 11.3 km/h 80 % 0.0 mm
05:07 8.7 °C 5.3 °C 1006.7 hPa SSW 4.8 km/h 8.0 km/h 79 % 0.0 mm
05:12 8.6 °C 5.3 °C 1006.7 hPa SSW 4.8 km/h 8.0 km/h 80 % 0.0 mm
05:17 8.4 °C 5.3 °C 1007.0 hPa SSW 4.8 km/h 8.0 km/h 81 % 0.0 mm
05:22 8.6 °C 5.5 °C 1007.0 hPa SSW 8.0 km/h 9.7 km/h 81 % 0.0 mm
05:32 8.6 °C 5.5 °C 1007.0 hPa SSW 4.8 km/h 11.3 km/h 81 % 0.0 mm
05:42 8.9 °C 5.6 °C 1007.0 hPa SSW 6.4 km/h 9.7 km/h 80 % 0.0 mm
06:02 10.3 °C 5.9 °C 1007.3 hPa SSW 14.5 km/h 17.7 km/h 74 % 0.0 mm
06:12 10.3 °C 5.9 °C 1007.3 hPa SW 8.0 km/h 17.7 km/h 74 % 0.0 mm
06:17 10.3 °C 6.1 °C 1007.7 hPa WSW 8.0 km/h 16.1 km/h 75 % 0.0 mm
06:22 10.3 °C 6.1 °C 1007.3 hPa SW 8.0 km/h 16.1 km/h 75 % 0.0 mm
06:32 10.3 °C 6.1 °C 1007.7 hPa SW 11.3 km/h 12.9 km/h 75 % 0.0 mm
06:42 10.2 °C 6.2 °C 1007.7 hPa SSW 9.7 km/h 16.1 km/h 76 % 0.0 mm
06:47 10.3 °C 6.3 °C 1008.0 hPa SW 9.7 km/h 14.5 km/h 76 % 0.0 mm
06:52 10.2 °C 6.2 °C 1007.7 hPa SW 6.4 km/h 14.5 km/h 76 % 0.0 mm
07:02 10.3 °C 6.3 °C 1007.7 hPa SSW 4.8 km/h 12.9 km/h 76 % 0.0 mm
07:12 10.3 °C 6.3 °C 1007.7 hPa SSW 6.4 km/h 12.9 km/h 76 % 0.0 mm
07:22 10.2 °C 6.2 °C 1008.0 hPa SSW 11.3 km/h 14.5 km/h 76 % 0.0 mm
07:27 10.2 °C 6.3 °C 1008.0 hPa SW 14.5 km/h 14.5 km/h 77 % 0.0 mm
07:42 10.8 °C 6.4 °C 1008.4 hPa SW 11.3 km/h 17.7 km/h 74 % 0.0 mm
07:47 10.7 °C 6.3 °C 1008.4 hPa SW 8.0 km/h 17.7 km/h 74 % 0.0 mm
07:52 10.7 °C 6.4 °C 1008.4 hPa SW 14.5 km/h 17.7 km/h 75 % 0.0 mm
07:57 10.7 °C 6.3 °C 1008.7 hPa SW 11.3 km/h 16.1 km/h 74 % 0.0 mm
08:02 10.9 °C 6.4 °C 1008.7 hPa SW 9.7 km/h 16.1 km/h 74 % 0.0 mm
08:12 10.7 °C 6.1 °C 1008.7 hPa SSW 9.7 km/h 17.7 km/h 73 % 0.0 mm
08:17 10.2 °C 6.0 °C 1009.0 hPa SSW 9.7 km/h 17.7 km/h 75 % 0.0 mm
08:22 9.8 °C 6.0 °C 1009.0 hPa SW 12.9 km/h 17.7 km/h 77 % 0.0 mm
08:32 10.0 °C 6.2 °C 1009.4 hPa SW 11.3 km/h 16.1 km/h 77 % 0.0 mm
08:42 10.3 °C 6.3 °C 1009.4 hPa SW 11.3 km/h 14.5 km/h 76 % 0.0 mm
08:52 10.3 °C 6.3 °C 1009.7 hPa SSW 9.7 km/h 16.1 km/h 76 % 0.0 mm
09:12 10.6 °C 6.7 °C 1010.0 hPa South 3.2 km/h 14.5 km/h 77 % 0.0 mm
09:17 10.9 °C 6.8 °C 1010.0 hPa SSW 6.4 km/h 14.5 km/h 76 % 0.0 mm
09:22 10.9 °C 7.0 °C 1010.0 hPa SSE 3.2 km/h 12.9 km/h 77 % 0.0 mm
09:32 11.1 °C 7.0 °C 1010.0 hPa SSE 1.6 km/h 11.3 km/h 76 % 0.0 mm
09:37 11.2 °C 7.1 °C 1010.0 hPa SSW 4.8 km/h 9.7 km/h 76 % 0.0 mm
09:42 11.3 °C 7.2 °C 1010.4 hPa SW 3.2 km/h 9.7 km/h 76 % 0.0 mm
09:52 11.4 °C 7.3 °C 1010.4 hPa SSW 6.4 km/h 6.4 km/h 76 % 0.0 mm
09:57 11.5 °C 7.2 °C 1010.4 hPa SSW 8.0 km/h 11.3 km/h 75 % 0.0 mm
10:02 11.7 °C 7.2 °C 1010.7 hPa South 9.7 km/h 11.3 km/h 74 % 0.0 mm
10:07 11.6 °C 7.3 °C 1010.7 hPa SW 12.9 km/h 12.9 km/h 75 % 0.0 mm
10:12 11.6 °C 7.3 °C 1010.7 hPa SSW 8.0 km/h 12.9 km/h 75 % 0.0 mm
10:17 11.9 °C 7.6 °C 1011.1 hPa SW 6.4 km/h 14.5 km/h 75 % 0.0 mm
10:22 12.1 °C 7.6 °C 1011.1 hPa SW 8.0 km/h 14.5 km/h 74 % 0.0 mm
10:32 12.4 °C 8.1 °C 1011.1 hPa SSW 4.8 km/h 12.9 km/h 75 % 0.0 mm
10:47 12.4 °C 8.1 °C 1011.4 hPa SSW 8.0 km/h 9.7 km/h 75 % 0.0 mm
10:52 12.6 °C 8.3 °C 1011.4 hPa SSW 11.3 km/h 11.3 km/h 75 % 0.0 mm
11:02 12.9 °C 8.4 °C 1011.4 hPa SSW 12.9 km/h 16.1 km/h 74 % 0.0 mm
11:12 13.2 °C 8.7 °C 1011.7 hPa SSW 8.0 km/h 19.3 km/h 74 % 0.0 mm
11:22 14.0 °C 8.8 °C 1011.7 hPa SSW 4.8 km/h 17.7 km/h 71 % 0.0 mm
11:32 14.8 °C 9.2 °C 1011.4 hPa SW 16.1 km/h 16.1 km/h 69 % 0.0 mm
11:42 15.3 °C 9.4 °C 1011.4 hPa SW 17.7 km/h 24.1 km/h 68 % 0.0 mm
11:52 16.2 °C 9.1 °C 1011.7 hPa SW 20.9 km/h 24.1 km/h 63 % 0.0 mm
12:17 16.6 °C 9.3 °C 1011.7 hPa SW 20.9 km/h 32.2 km/h 62 % 0.0 mm
12:22 16.7 °C 9.1 °C 1011.4 hPa SW 27.4 km/h 32.2 km/h 61 % 0.0 mm
12:32 16.7 °C 9.4 °C 1011.4 hPa SW 17.7 km/h 37.0 km/h 62 % 0.0 mm
12:47 16.2 °C 9.1 °C 1011.4 hPa SW 14.5 km/h 33.8 km/h 63 % 0.0 mm
12:57 15.7 °C 8.9 °C 1011.7 hPa SW 14.5 km/h 33.8 km/h 64 % 0.0 mm
13:12 15.8 °C 8.3 °C 1011.7 hPa SW 24.1 km/h 30.6 km/h 61 % 0.0 mm
13:17 16.1 °C 8.3 °C 1011.7 hPa WSW 16.1 km/h 27.4 km/h 60 % 0.0 mm
13:32 15.9 °C 8.1 °C 1011.7 hPa SW 17.7 km/h 32.2 km/h 60 % 0.0 mm
13:42 16.1 °C 8.6 °C 1011.7 hPa SW 20.9 km/h 33.8 km/h 61 % 0.0 mm
13:52 16.3 °C 8.5 °C 1011.7 hPa WSW 20.9 km/h 27.4 km/h 60 % 0.0 mm
14:02 16.3 °C 8.5 °C 1011.7 hPa SSW 12.9 km/h 30.6 km/h 60 % 0.0 mm
14:12 16.3 °C 8.8 °C 1011.7 hPa SSW 16.1 km/h 38.6 km/h 61 % 0.0 mm
14:32 16.2 °C 8.7 °C 1011.7 hPa West 16.1 km/h 33.8 km/h 61 % 0.0 mm
14:42 16.3 °C 8.8 °C 1011.7 hPa SW 17.7 km/h 33.8 km/h 61 % 0.0 mm
14:57 16.4 °C 8.9 °C 1011.7 hPa SW 14.5 km/h 30.6 km/h 61 % 0.0 mm
15:02 16.4 °C 8.9 °C 1011.7 hPa SW 14.5 km/h 30.6 km/h 61 % 0.0 mm
15:12 16.4 °C 8.9 °C 1011.7 hPa SW 12.9 km/h 27.4 km/h 61 % 0.0 mm
15:17 16.4 °C 9.1 °C 1012.1 hPa SW 16.1 km/h 25.7 km/h 62 % 0.0 mm
15:22 16.4 °C 8.9 °C 1012.1 hPa SW 9.7 km/h 25.7 km/h 61 % 0.0 mm
15:57 15.4 °C 8.9 °C 1012.1 hPa SSW 11.3 km/h 20.9 km/h 65 % 0.0 mm
16:02 15.6 °C 9.0 °C 1012.1 hPa SSW 9.7 km/h 20.9 km/h 65 % 0.0 mm
16:07 15.6 °C 9.3 °C 1012.4 hPa SSW 9.7 km/h 24.1 km/h 66 % 0.0 mm
16:12 15.4 °C 9.3 °C 1012.4 hPa SSW 6.4 km/h 24.1 km/h 67 % 0.0 mm
16:17 15.3 °C 9.2 °C 1012.4 hPa SW 8.0 km/h 17.7 km/h 67 % 0.0 mm
16:27 15.3 °C 9.2 °C 1012.4 hPa SSW 4.8 km/h 17.7 km/h 67 % 0.0 mm
16:37 14.6 °C 9.0 °C 1012.4 hPa SSW 4.8 km/h 12.9 km/h 69 % 0.0 mm
16:42 14.6 °C 9.2 °C 1012.4 hPa SSW 6.4 km/h 11.3 km/h 70 % 0.0 mm
16:52 14.2 °C 8.8 °C 1012.4 hPa SSW 8.0 km/h 11.3 km/h 70 % 0.0 mm
16:57 13.8 °C 8.6 °C 1012.8 hPa SW 6.4 km/h 11.3 km/h 71 % 0.0 mm
17:12 13.3 °C 8.4 °C 1012.8 hPa SW 9.7 km/h 11.3 km/h 72 % 0.0 mm
17:17 13.3 °C 8.4 °C 1012.8 hPa SW 8.0 km/h 12.9 km/h 72 % 0.0 mm
17:22 13.4 °C 8.2 °C 1012.8 hPa SSW 8.0 km/h 14.5 km/h 71 % 0.0 mm
17:32 13.1 °C 8.4 °C 1012.8 hPa SSW 9.7 km/h 14.5 km/h 73 % 0.0 mm
17:37 12.9 °C 8.2 °C 1013.1 hPa SW 9.7 km/h 14.5 km/h 73 % 0.0 mm
17:52 12.6 °C 8.3 °C 1013.1 hPa SSW 6.4 km/h 12.9 km/h 75 % 0.0 mm
17:57 12.5 °C 8.2 °C 1013.1 hPa SSW 8.0 km/h 12.9 km/h 75 % 0.0 mm
18:02 12.4 °C 8.1 °C 1013.4 hPa SSW 6.4 km/h 12.9 km/h 75 % 0.0 mm
18:07 12.4 °C 8.1 °C 1013.4 hPa SW 11.3 km/h 12.9 km/h 75 % 0.0 mm
18:17 12.5 °C 8.2 °C 1013.4 hPa SSW 8.0 km/h 12.9 km/h 75 % 0.0 mm
18:22 12.6 °C 8.1 °C 1013.4 hPa SSW 4.8 km/h 12.9 km/h 74 % 0.0 mm
18:27 12.6 °C 8.1 °C 1013.4 hPa SW 8.0 km/h 12.9 km/h 74 % 0.0 mm
18:42 12.6 °C 8.3 °C 1013.4 hPa SW 6.4 km/h 11.3 km/h 75 % 0.0 mm
18:52 12.7 °C 8.2 °C 1013.8 hPa SW 8.0 km/h 11.3 km/h 74 % 0.0 mm
18:57 12.6 °C 8.1 °C 1013.4 hPa SW 4.8 km/h 11.3 km/h 74 % 0.0 mm
19:07 12.4 °C 8.1 °C 1013.8 hPa SW 6.4 km/h 9.7 km/h 75 % 0.0 mm
19:12 12.3 °C 8.0 °C 1013.8 hPa SW 6.4 km/h 8.0 km/h 75 % 0.0 mm
19:22 12.4 °C 8.1 °C 1013.8 hPa SW 4.8 km/h 9.7 km/h 75 % 0.0 mm
19:32 12.4 °C 8.1 °C 1013.8 hPa SW 3.2 km/h 9.7 km/h 75 % 0.0 mm
19:42 12.3 °C 8.0 °C 1013.8 hPa SSW 4.8 km/h 9.7 km/h 75 % 0.0 mm
19:47 12.3 °C 8.0 °C 1013.8 hPa SW 6.4 km/h 9.7 km/h 75 % 0.0 mm
20:02 12.2 °C 8.1 °C 1013.8 hPa SSW 8.0 km/h 11.3 km/h 76 % 0.0 mm
20:07 12.2 °C 8.1 °C 1014.1 hPa SW 8.0 km/h 11.3 km/h 76 % 0.0 mm
20:12 12.1 °C 8.0 °C 1013.8 hPa SW 4.8 km/h 11.3 km/h 76 % 0.0 mm
20:22 11.9 °C 8.0 °C 1013.8 hPa SW 4.8 km/h 11.3 km/h 77 % 0.0 mm
20:27 11.8 °C 7.9 °C 1014.1 hPa SW 6.4 km/h 11.3 km/h 77 % 0.0 mm
20:32 11.8 °C 7.9 °C 1014.1 hPa SSW 6.4 km/h 11.3 km/h 77 % 0.0 mm
20:52 12.2 °C 8.1 °C 1014.1 hPa SW 6.4 km/h 12.9 km/h 76 % 0.0 mm
21:02 12.2 °C 8.3 °C 1014.1 hPa SSW 8.0 km/h 12.9 km/h 77 % 0.0 mm
21:07 12.2 °C 8.3 °C 1014.1 hPa SSW 8.0 km/h 11.3 km/h 77 % 0.0 mm
21:12 12.1 °C 8.2 °C 1014.4 hPa SW 8.0 km/h 12.9 km/h 77 % 0.0 mm
21:17 12.1 °C 8.2 °C 1014.1 hPa SW 8.0 km/h 12.9 km/h 77 % 0.0 mm
21:22 11.9 °C 8.0 °C 1014.1 hPa South 6.4 km/h 12.9 km/h 77 % 0.0 mm
21:27 11.7 °C 8.0 °C 1014.4 hPa SSW 6.4 km/h 11.3 km/h 78 % 0.0 mm
21:37 11.1 °C 7.8 °C 1014.4 hPa SSW 3.2 km/h 9.7 km/h 80 % 0.0 mm
21:52 10.9 °C 7.6 °C 1014.4 hPa SW 6.4 km/h 8.0 km/h 80 % 0.0 mm
22:02 10.8 °C 7.5 °C 1014.4 hPa SSW 6.4 km/h 9.7 km/h 80 % 0.0 mm
22:17 10.5 °C 7.4 °C 1014.1 hPa SSW 4.8 km/h 9.7 km/h 81 % 0.0 mm
22:27 10.5 °C 7.4 °C 1014.1 hPa SSW 4.8 km/h 6.4 km/h 81 % 0.0 mm
22:32 10.5 °C 7.4 °C 1014.1 hPa SSW 4.8 km/h 6.4 km/h 81 % 0.0 mm
22:37 10.6 °C 7.5 °C 1014.4 hPa SSW 4.8 km/h 6.4 km/h 81 % 0.0 mm
22:42 10.6 °C 7.5 °C 1014.4 hPa SSW 4.8 km/h 6.4 km/h 81 % 0.0 mm
22:57 10.6 °C 7.5 °C 1014.1 hPa SSW 1.6 km/h 4.8 km/h 81 % 0.0 mm
23:02 10.5 °C 7.4 °C 1014.4 hPa SSW 3.2 km/h 4.8 km/h 81 % 0.0 mm
23:07 10.4 °C 7.3 °C 1014.4 hPa SSW 1.6 km/h 3.2 km/h 81 % 0.0 mm
23:12 10.3 °C 7.4 °C 1014.4 hPa SSW 3.2 km/h 3.2 km/h 82 % 0.0 mm
23:22 10.4 °C 7.5 °C 1014.4 hPa SSW 3.2 km/h 3.2 km/h 82 % 0.0 mm
23:32 10.5 °C 7.4 °C 1014.4 hPa SSW 1.6 km/h 3.2 km/h 81 % 0.0 mm
23:42 10.5 °C 7.4 °C 1014.4 hPa SW 3.2 km/h 3.2 km/h 81 % 0.0 mm
23:47 10.7 °C 7.6 °C 1014.4 hPa SW 4.8 km/h 4.8 km/h 81 % 0.0 mm
23:52 10.9 °C 7.6 °C 1014.1 hPa South 1.6 km/h 4.8 km/h 80 % 0.0 mm
23:57 10.9 °C 7.6 °C 1013.8 hPa SSW 1.6 km/h 4.8 km/h 80 % 0.0 mm
Meteo18
Compliments of Weather Underground - 4 mb

Script developed by  Jim McMurry - jmcmurry@mwt.net Adapted for the template by  Wim van der Kuil - Leuven-Template.eu

You find our weather info also at:

European Weather Network

Weather Underground

Equipment we use:

Weather-station
Davis Vue

Weather-program
Meteohub

Weather-server
Raspberry PI 2 B+

Provider
1 and 1

Davis Vue

Meteohub

Raspberry PI 2 B+

1 and 1